createdAt,value
2019-06-10T00:00:31.122Z,464.00
2019-06-10T00:01:06.576Z,455.80
2019-06-10T00:01:40.790Z,460.40
2019-06-10T00:02:14.290Z,477.80
2019-06-10T00:02:50.789Z,466.60
2019-06-10T00:03:25.800Z,447.60
2019-06-10T00:04:05.117Z,463.20
2019-06-10T00:04:36.846Z,471.60
2019-06-10T00:05:12.406Z,470.90
2019-06-10T00:05:48.028Z,467.60
2019-06-10T00:06:23.415Z,482.90
2019-06-10T00:07:00.995Z,449.40
2019-06-10T00:07:34.256Z,436.30
2019-06-10T00:08:11.958Z,442.70
2019-06-10T00:08:45.167Z,472.80
2019-06-10T00:09:21.110Z,484.80
2019-06-10T00:09:56.222Z,476.90
2019-06-10T00:10:31.451Z,455.00
2019-06-10T00:11:07.820Z,466.30
2019-06-10T00:11:42.259Z,472.00
2019-06-10T00:12:17.725Z,468.40
2019-06-10T00:12:55.389Z,473.80
2019-06-10T00:13:28.549Z,452.10
2019-06-10T00:14:04.577Z,466.80
2019-06-10T00:14:41.670Z,476.40
2019-06-10T00:15:14.858Z,474.30
2019-06-10T00:15:51.547Z,463.50
2019-06-10T00:16:25.575Z,480.50
2019-06-10T00:17:02.033Z,468.30
2019-06-10T00:17:50.637Z,457.80
2019-06-10T00:18:34.321Z,481.80
2019-06-10T00:18:47.350Z,475.10
2019-06-10T00:19:22.808Z,457.90
2019-06-10T00:19:59.201Z,470.90
2019-06-10T00:20:33.793Z,464.40
2019-06-10T00:21:11.221Z,474.00
2019-06-10T00:21:44.907Z,470.40
2019-06-10T00:22:21.571Z,455.00
2019-06-10T00:22:57.398Z,457.30
2019-06-10T00:23:32.082Z,468.50
2019-06-10T00:24:08.272Z,489.50
2019-06-10T00:24:42.599Z,486.90
2019-06-10T00:25:17.950Z,462.80
2019-06-10T00:25:53.282Z,453.50
2019-06-10T00:26:30.613Z,460.40
2019-06-10T00:27:05.567Z,471.40
2019-06-10T00:27:41.870Z,495.70
2019-06-10T00:28:15.082Z,474.50
2019-06-10T00:28:51.336Z,450.90
2019-06-10T00:29:25.914Z,454.80
2019-06-10T00:30:03.391Z,465.70
2019-06-10T00:30:36.707Z,467.20
2019-06-10T00:31:12.374Z,491.70
2019-06-10T00:31:47.898Z,470.50
2019-06-10T00:32:23.269Z,456.50
2019-06-10T00:32:58.813Z,468.10
2019-06-10T00:33:34.261Z,460.80
2019-06-10T00:34:12.101Z,443.60
2019-06-10T00:34:45.342Z,452.50
2019-06-10T00:35:21.080Z,453.50
2019-06-10T00:35:56.026Z,452.10
2019-06-10T00:36:31.491Z,453.00
2019-06-10T00:37:09.177Z,447.70
2019-06-10T00:37:42.124Z,445.80
2019-06-10T00:38:17.502Z,444.50
2019-06-10T00:38:52.836Z,454.20
2019-06-10T00:39:28.419Z,465.20
2019-06-10T00:40:05.470Z,465.10
2019-06-10T00:40:41.143Z,460.60
2019-06-10T00:41:14.660Z,454.20
2019-06-10T00:41:52.014Z,477.60
2019-06-10T00:42:25.606Z,476.20
2019-06-10T00:43:02.625Z,457.40
2019-06-10T00:43:36.506Z,449.00
2019-06-10T00:44:12.798Z,454.20
2019-06-10T00:44:47.218Z,459.50
2019-06-10T00:45:22.687Z,478.80
2019-06-10T00:45:58.407Z,456.10
2019-06-10T00:46:33.873Z,475.20
2019-06-10T00:47:14.283Z,475.00
2019-06-10T00:47:44.473Z,468.90
2019-06-10T00:48:26.116Z,474.40
2019-06-10T00:48:55.562Z,488.50
2019-06-10T00:49:31.680Z,485.40
2019-06-10T00:50:08.193Z,505.00
2019-06-10T00:50:41.975Z,485.10
2019-06-10T00:51:17.608Z,480.70
2019-06-10T00:51:53.080Z,466.80
2019-06-10T00:52:30.720Z,478.10
2019-06-10T00:53:04.492Z,494.20
2019-06-10T00:53:39.147Z,498.60
2019-06-10T00:54:15.709Z,476.90
2019-06-10T00:54:51.736Z,470.10
2019-06-10T00:55:25.474Z,484.30
2019-06-10T00:56:02.442Z,499.60
2019-06-10T00:56:36.498Z,492.30
2019-06-10T00:57:12.337Z,490.50
2019-06-10T00:57:47.298Z,490.50
2019-06-10T00:58:22.639Z,493.60
2019-06-10T00:58:57.810Z,480.20
2019-06-10T00:59:33.223Z,493.70
2019-06-10T01:00:23.119Z,495.80
2019-06-10T01:00:43.976Z,483.30
2019-06-10T01:01:21.745Z,495.90
2019-06-10T01:01:54.628Z,504.80
2019-06-10T01:02:31.743Z,492.50
2019-06-10T01:03:06.008Z,483.80
2019-06-10T01:03:41.525Z,492.60
2019-06-10T01:04:16.523Z,487.60
2019-06-10T01:04:51.546Z,483.50
2019-06-10T01:05:27.176Z,481.80
2019-06-10T01:06:03.085Z,491.70
2019-06-10T01:06:38.105Z,506.80
2019-06-10T01:07:14.788Z,500.60
2019-06-10T01:07:50.781Z,503.10
2019-06-10T01:08:25.055Z,498.10
2019-06-10T01:09:00.658Z,476.90
2019-06-10T01:09:35.805Z,477.20
2019-06-10T01:10:12.819Z,489.10
2019-06-10T01:10:46.839Z,493.40
2019-06-10T01:11:26.858Z,506.70
2019-06-10T01:11:57.352Z,483.00
2019-06-10T01:12:33.302Z,472.00
2019-06-10T01:13:09.668Z,489.20
2019-06-10T01:13:44.036Z,492.20
2019-06-10T01:14:21.359Z,491.50
2019-06-10T01:14:54.689Z,488.10
2019-06-10T01:15:31.158Z,494.90
2019-06-10T01:16:05.506Z,491.50
2019-06-10T01:16:41.259Z,509.30
2019-06-10T01:17:16.623Z,505.10
2019-06-10T01:17:52.082Z,501.60
2019-06-10T01:18:35.647Z,501.90
2019-06-10T01:19:03.793Z,487.60
2019-06-10T01:19:38.544Z,481.20
2019-06-10T01:20:15.643Z,487.60
2019-06-10T01:20:51.565Z,490.00
2019-06-10T01:21:25.146Z,477.60
2019-06-10T01:22:01.595Z,482.30
2019-06-10T01:22:35.851Z,486.80
2019-06-10T01:23:13.805Z,475.40
2019-06-10T01:23:46.991Z,475.60
2019-06-10T01:24:22.478Z,477.80
2019-06-10T01:24:57.789Z,488.40
2019-06-10T01:25:33.170Z,489.10
2019-06-10T01:26:12.310Z,490.20
2019-06-10T01:26:44.020Z,468.90
2019-06-10T01:27:21.069Z,477.10
2019-06-10T01:27:54.851Z,492.40
2019-06-10T01:28:31.447Z,507.50
2019-06-10T01:29:05.642Z,502.20
2019-06-10T01:29:41.604Z,503.70
2019-06-10T01:30:21.653Z,489.00
2019-06-10T01:30:51.701Z,479.70
2019-06-10T01:31:26.784Z,479.40
2019-06-10T01:32:02.100Z,481.60
2019-06-10T01:32:37.526Z,486.10
2019-06-10T01:33:14.436Z,484.20
2019-06-10T01:33:48.369Z,477.00
2019-06-10T01:34:23.799Z,487.60
2019-06-10T01:35:01.114Z,472.10
2019-06-10T01:35:34.528Z,480.30
2019-06-10T01:36:12.650Z,494.40
2019-06-10T01:36:45.443Z,492.20
2019-06-10T01:37:21.866Z,492.10
2019-06-10T01:37:56.290Z,486.60
2019-06-10T01:38:31.779Z,491.20
2019-06-10T01:39:07.408Z,483.60
2019-06-10T01:39:42.826Z,478.20
2019-06-10T01:40:18.087Z,466.60
2019-06-10T01:40:53.603Z,460.40
2019-06-10T01:41:30.552Z,477.10
2019-06-10T01:42:04.597Z,509.40
2019-06-10T01:42:41.276Z,500.60
2019-06-10T01:43:17.320Z,506.00
2019-06-10T01:43:51.321Z,488.00
2019-06-10T01:44:26.221Z,470.70
2019-06-10T01:45:01.683Z,479.70
2019-06-10T01:45:37.054Z,492.60
2019-06-10T01:46:14.112Z,496.10
2019-06-10T01:46:47.984Z,482.30
2019-06-10T01:47:23.338Z,486.60
2019-06-10T01:47:58.798Z,470.10
2019-06-10T01:48:44.321Z,476.50
2019-06-10T01:49:11.543Z,478.80
2019-06-10T01:49:45.032Z,481.80
2019-06-10T01:50:21.818Z,493.40
2019-06-10T01:50:55.891Z,505.60
2019-06-10T01:51:31.707Z,485.40
2019-06-10T01:52:07.241Z,478.50
2019-06-10T01:52:41.981Z,494.00
2019-06-10T01:53:18.583Z,485.80
2019-06-10T01:53:52.680Z,487.10
2019-06-10T01:54:28.240Z,502.50
2019-06-10T01:55:03.705Z,480.80
2019-06-10T01:55:41.451Z,466.10
2019-06-10T01:56:15.470Z,473.80
2019-06-10T01:56:51.070Z,483.00
2019-06-10T01:57:25.528Z,469.60
2019-06-10T01:58:00.971Z,461.60
2019-06-10T01:58:36.431Z,473.70
2019-06-10T01:59:13.731Z,504.40
2019-06-10T01:59:47.554Z,523.30
2019-06-10T02:00:25.867Z,513.50
2019-06-10T02:00:58.284Z,500.20
2019-06-10T02:01:33.845Z,490.70
2019-06-10T02:02:12.079Z,483.50
2019-06-10T02:02:45.051Z,480.70
2019-06-10T02:03:23.736Z,489.10
2019-06-10T02:03:55.675Z,481.40
2019-06-10T02:04:32.053Z,491.70
2019-06-10T02:05:06.617Z,491.80
2019-06-10T02:05:42.126Z,477.40
2019-06-10T02:06:20.554Z,482.60
2019-06-10T02:06:52.866Z,480.70
2019-06-10T02:07:28.356Z,483.50
2019-06-10T02:08:03.813Z,506.30
2019-06-10T02:08:41.686Z,491.50
2019-06-10T02:09:15.537Z,476.00
2019-06-10T02:09:51.767Z,473.20
2019-06-10T02:10:25.994Z,468.80
2019-06-10T02:11:01.401Z,486.70
2019-06-10T02:11:36.730Z,489.20
2019-06-10T02:12:14.607Z,489.80
2019-06-10T02:12:47.724Z,469.80
2019-06-10T02:13:23.200Z,470.90
2019-06-10T02:14:00.781Z,490.00
2019-06-10T02:14:34.408Z,468.60
2019-06-10T02:15:12.089Z,469.30
2019-06-10T02:15:44.811Z,487.00
2019-06-10T02:16:23.905Z,498.60
2019-06-10T02:16:55.942Z,498.30
2019-06-10T02:17:31.588Z,485.00
2019-06-10T02:18:06.567Z,490.60
2019-06-10T02:18:54.426Z,500.80
2019-06-10T02:19:18.589Z,498.70
2019-06-10T02:19:52.868Z,498.20
2019-06-10T02:20:28.261Z,491.30
2019-06-10T02:21:03.568Z,492.00
2019-06-10T02:21:41.575Z,496.20
2019-06-10T02:22:17.003Z,501.80
2019-06-10T02:22:51.592Z,494.20
2019-06-10T02:23:25.527Z,492.20
2019-06-10T02:24:01.026Z,487.60
2019-06-10T02:24:36.038Z,493.50
2019-06-10T02:25:12.542Z,497.10
2019-06-10T02:25:47.137Z,490.10
2019-06-10T02:26:23.685Z,488.40
2019-06-10T02:26:58.278Z,489.60
2019-06-10T02:27:33.647Z,496.00
2019-06-10T02:28:08.983Z,494.30
2019-06-10T02:28:44.370Z,481.80
2019-06-10T02:29:21.785Z,488.70
2019-06-10T02:29:55.344Z,486.20
2019-06-10T02:30:41.724Z,469.70
2019-06-10T02:31:06.145Z,485.10
2019-06-10T02:31:43.111Z,497.30
2019-06-10T02:32:22.525Z,493.80
2019-06-10T02:32:52.505Z,484.80
2019-06-10T02:33:30.307Z,492.50
2019-06-10T02:34:03.076Z,482.00
2019-06-10T02:34:50.706Z,489.40
2019-06-10T02:35:22.613Z,489.80
2019-06-10T02:35:49.518Z,483.60
2019-06-10T02:36:31.233Z,500.10
2019-06-10T02:37:00.201Z,496.70
2019-06-10T02:37:38.255Z,487.40
2019-06-10T02:38:13.264Z,479.10
2019-06-10T02:38:46.176Z,481.40
2019-06-10T02:39:28.113Z,490.50
2019-06-10T02:39:57.378Z,498.40
2019-06-10T02:40:36.397Z,498.80
2019-06-10T02:41:07.998Z,470.50
2019-06-10T02:41:44.717Z,479.60
2019-06-10T02:42:21.618Z,497.50
2019-06-10T02:42:54.148Z,489.90
2019-06-10T02:43:32.245Z,482.30
2019-06-10T02:44:05.069Z,473.00
2019-06-10T02:44:40.287Z,467.40
2019-06-10T02:45:19.672Z,461.20
2019-06-10T02:45:53.113Z,489.50
2019-06-10T02:46:31.028Z,488.30
2019-06-10T02:47:03.375Z,482.00
2019-06-10T02:47:38.171Z,486.90
2019-06-10T02:48:13.704Z,470.70
2019-06-10T02:48:48.139Z,480.60
2019-06-10T02:49:46.281Z,474.00
2019-06-10T02:50:03.153Z,475.50
2019-06-10T02:50:36.449Z,466.00
2019-06-10T02:51:13.103Z,465.20
2019-06-10T02:51:45.088Z,476.50
2019-06-10T02:52:23.253Z,474.90
2019-06-10T02:52:56.017Z,486.40
2019-06-10T02:53:35.676Z,480.10
2019-06-10T02:54:06.811Z,485.80
2019-06-10T02:54:43.813Z,475.00
2019-06-10T02:55:19.947Z,491.00
2019-06-10T02:55:53.921Z,484.80
2019-06-10T02:56:31.011Z,480.10
2019-06-10T02:57:04.450Z,487.90
2019-06-10T02:57:40.428Z,496.00
2019-06-10T02:58:15.613Z,502.80
2019-06-10T02:58:53.200Z,496.00
2019-06-10T02:59:28.920Z,502.80
2019-06-10T03:00:06.520Z,493.80
2019-06-10T03:00:43.217Z,505.80
2019-06-10T03:01:16.331Z,511.90
2019-06-10T03:01:47.677Z,489.30
2019-06-10T03:02:28.890Z,483.10
2019-06-10T03:02:58.296Z,485.40
2019-06-10T03:03:43.299Z,491.00
2019-06-10T03:04:08.891Z,481.70
2019-06-10T03:04:44.115Z,484.20
2019-06-10T03:05:20.201Z,472.90
2019-06-10T03:05:54.562Z,486.20
2019-06-10T03:06:34.132Z,499.50
2019-06-10T03:07:05.708Z,479.00
2019-06-10T03:07:44.023Z,475.90
2019-06-10T03:08:17.957Z,478.70
2019-06-10T03:08:54.598Z,498.70
2019-06-10T03:09:31.767Z,501.10
2019-06-10T03:10:04.659Z,500.40
2019-06-10T03:10:38.141Z,500.70
2019-06-10T03:11:14.121Z,497.20
2019-06-10T03:11:49.179Z,476.40
2019-06-10T03:12:25.801Z,479.30
2019-06-10T03:13:02.354Z,480.40
2019-06-10T03:13:35.640Z,479.60
2019-06-10T03:14:12.997Z,478.70
2019-06-10T03:14:46.841Z,485.40
2019-06-10T03:15:24.518Z,487.60
2019-06-10T03:15:57.977Z,473.50
2019-06-10T03:16:33.262Z,480.50
2019-06-10T03:17:08.845Z,495.00
2019-06-10T03:17:44.267Z,489.00
2019-06-10T03:18:19.897Z,505.60
2019-06-10T03:18:55.081Z,495.00
2019-06-10T03:19:44.129Z,487.00
2019-06-10T03:20:05.626Z,479.40
2019-06-10T03:20:42.545Z,483.80
2019-06-10T03:21:16.451Z,494.40
2019-06-10T03:21:52.146Z,487.00
2019-06-10T03:22:28.355Z,485.80
2019-06-10T03:23:02.995Z,485.20
2019-06-10T03:23:38.031Z,486.40
2019-06-10T03:24:13.407Z,504.50
2019-06-10T03:24:48.846Z,500.20
2019-06-10T03:25:25.978Z,503.60
2019-06-10T03:25:59.280Z,489.30
2019-06-10T03:26:34.775Z,505.30
2019-06-10T03:27:12.530Z,503.10
2019-06-10T03:27:45.579Z,482.20
2019-06-10T03:28:23.911Z,493.20
2019-06-10T03:28:56.571Z,494.10
2019-06-10T03:29:32.754Z,479.30
2019-06-10T03:30:15.645Z,501.70
2019-06-10T03:30:53.344Z,514.80
2019-06-10T03:31:18.784Z,495.90
2019-06-10T03:31:55.206Z,495.20
2019-06-10T03:32:35.421Z,488.50
2019-06-10T03:33:04.964Z,503.20
2019-06-10T03:33:42.074Z,500.30
2019-06-10T03:34:15.585Z,499.70
2019-06-10T03:34:54.441Z,516.90
2019-06-10T03:35:26.609Z,491.80
2019-06-10T03:36:02.959Z,464.20
2019-06-10T03:36:36.482Z,473.80
2019-06-10T03:37:12.900Z,472.40
2019-06-10T03:37:47.505Z,476.60
2019-06-10T03:38:23.657Z,476.00
2019-06-10T03:38:58.199Z,474.50
2019-06-10T03:39:33.464Z,470.70
2019-06-10T03:40:08.790Z,473.80
2019-06-10T03:40:43.950Z,491.70
2019-06-10T03:41:19.184Z,505.30
2019-06-10T03:41:54.899Z,465.40
2019-06-10T03:42:32.339Z,459.20
2019-06-10T03:43:05.508Z,475.30
2019-06-10T03:43:42.681Z,509.60
2019-06-10T03:44:16.908Z,512.60
2019-06-10T03:44:52.580Z,492.30
2019-06-10T03:45:28.378Z,486.60
2019-06-10T03:46:03.072Z,497.80
2019-06-10T03:46:38.023Z,504.20
2019-06-10T03:47:13.456Z,504.00
2019-06-10T03:47:49.226Z,497.40
2019-06-10T03:48:26.743Z,493.50
2019-06-10T03:49:02.970Z,486.10
2019-06-10T03:49:49.136Z,489.40
2019-06-10T03:50:13.028Z,509.70
2019-06-10T03:50:46.409Z,513.00
2019-06-10T03:51:23.941Z,513.20
2019-06-10T03:51:57.342Z,512.80
2019-06-10T03:52:32.610Z,499.30
2019-06-10T03:53:07.740Z,493.90
2019-06-10T03:53:43.426Z,484.50
2019-06-10T03:54:19.241Z,487.80
2019-06-10T03:54:54.038Z,470.30
2019-06-10T03:55:29.279Z,460.00
2019-06-10T03:56:04.844Z,460.90
2019-06-10T03:56:42.747Z,470.80
2019-06-10T03:57:17.112Z,485.00
2019-06-10T03:57:52.620Z,495.60
2019-06-10T03:58:29.163Z,498.40
2019-06-10T03:59:02.874Z,491.30
2019-06-10T03:59:38.111Z,472.50
2019-06-10T04:00:13.946Z,466.00
2019-06-10T04:00:48.703Z,474.60
2019-06-10T04:01:26.420Z,488.00
2019-06-10T04:01:59.558Z,499.90
2019-06-10T04:02:34.896Z,496.80
2019-06-10T04:03:11.995Z,468.00
2019-06-10T04:03:45.629Z,484.60
2019-06-10T04:04:23.730Z,490.50
2019-06-10T04:04:56.731Z,488.50
2019-06-10T04:05:33.117Z,503.80
2019-06-10T04:06:07.555Z,498.20
2019-06-10T04:06:44.280Z,485.50
2019-06-10T04:07:20.106Z,468.10
2019-06-10T04:07:53.964Z,468.80
2019-06-10T04:08:29.292Z,487.40
2019-06-10T04:09:04.666Z,505.40
2019-06-10T04:09:42.386Z,505.60
2019-06-10T04:10:15.684Z,496.50
2019-06-10T04:10:52.054Z,473.10
2019-06-10T04:11:28.455Z,464.10
2019-06-10T04:12:02.407Z,475.00
2019-06-10T04:12:38.147Z,490.60
2019-06-10T04:13:13.715Z,494.50
2019-06-10T04:13:49.185Z,494.80
2019-06-10T04:14:25.442Z,494.10
2019-06-10T04:14:59.781Z,489.10
2019-06-10T04:15:35.499Z,481.00
2019-06-10T04:16:12.794Z,479.90
2019-06-10T04:16:46.470Z,482.00
2019-06-10T04:17:22.659Z,481.30
2019-06-10T04:17:57.581Z,486.20
2019-06-10T04:18:33.130Z,485.60
2019-06-10T04:19:08.395Z,477.00
2019-06-10T04:19:43.738Z,462.80
2019-06-10T04:20:19.798Z,471.30
2019-06-10T04:20:54.365Z,486.70
2019-06-10T04:21:29.628Z,482.80
2019-06-10T04:22:05.001Z,470.10
2019-06-10T04:22:40.364Z,482.20
2019-06-10T04:23:15.744Z,489.10
2019-06-10T04:23:52.758Z,489.70
2019-06-10T04:24:27.312Z,486.80
2019-06-10T04:25:03.002Z,479.30
2019-06-10T04:25:37.269Z,479.70
2019-06-10T04:26:12.697Z,489.30
2019-06-10T04:26:48.096Z,487.60
2019-06-10T04:27:25.211Z,487.60
2019-06-10T04:27:59.303Z,486.70
2019-06-10T04:28:34.880Z,464.40
2019-06-10T04:29:12.517Z,463.50
2019-06-10T04:29:45.962Z,467.80
2019-06-10T04:30:24.354Z,469.90
2019-06-10T04:30:56.803Z,477.10
2019-06-10T04:31:33.101Z,474.50
2019-06-10T04:32:07.858Z,475.40
2019-06-10T04:32:43.535Z,480.70
2019-06-10T04:33:20.261Z,487.20
2019-06-10T04:33:54.457Z,480.00
2019-06-10T04:34:32.761Z,473.50
2019-06-10T04:35:05.039Z,478.30
2019-06-10T04:35:42.573Z,485.20
2019-06-10T04:36:15.777Z,476.20
2019-06-10T04:36:52.585Z,466.00
2019-06-10T04:37:27.752Z,475.20
2019-06-10T04:38:02.526Z,471.60
2019-06-10T04:38:37.432Z,485.20
2019-06-10T04:39:12.721Z,488.20
2019-06-10T04:39:48.169Z,486.20
2019-06-10T04:40:24.696Z,484.90
2019-06-10T04:40:58.986Z,495.80
2019-06-10T04:41:34.348Z,498.90
2019-06-10T04:42:09.733Z,506.90
2019-06-10T04:42:45.235Z,489.00
2019-06-10T04:43:22.971Z,470.40
2019-06-10T04:43:56.237Z,478.40
2019-06-10T04:44:32.956Z,485.50
2019-06-10T04:45:07.036Z,480.80
2019-06-10T04:45:42.933Z,469.90
2019-06-10T04:46:18.600Z,450.30
2019-06-10T04:46:53.243Z,446.80
2019-06-10T04:47:29.614Z,458.40
2019-06-10T04:48:03.938Z,480.40
2019-06-10T04:48:39.560Z,472.50
2019-06-10T04:49:14.938Z,471.30
2019-06-10T04:49:52.132Z,479.90
2019-06-10T04:50:35.427Z,464.50
2019-06-10T04:51:02.753Z,454.30
2019-06-10T04:51:36.584Z,450.60
2019-06-10T04:52:12.262Z,478.50
2019-06-10T04:52:47.120Z,465.40
2019-06-10T04:53:23.726Z,470.40
2019-06-10T04:53:57.847Z,472.70
2019-06-10T04:54:33.445Z,477.80
2019-06-10T04:55:09.069Z,485.00
2019-06-10T04:55:44.609Z,480.00
2019-06-10T04:56:19.974Z,460.00
2019-06-10T04:56:55.266Z,454.10
2019-06-10T04:57:32.825Z,456.70
2019-06-10T04:58:06.978Z,475.20
2019-06-10T04:58:43.212Z,482.80
2019-06-10T04:59:18.769Z,470.50
2019-06-10T04:59:53.404Z,469.40
2019-06-10T05:00:29.140Z,477.60
2019-06-10T05:01:04.119Z,471.40
2019-06-10T05:01:39.633Z,469.90
2019-06-10T05:02:15.110Z,468.80
2019-06-10T05:02:52.252Z,466.00
2019-06-10T05:03:27.807Z,472.80
2019-06-10T05:04:03.145Z,477.00
2019-06-10T05:04:37.806Z,467.10
2019-06-10T05:05:13.268Z,467.80
2019-06-10T05:05:48.500Z,458.00
2019-06-10T05:06:25.505Z,431.20
2019-06-10T05:07:01.983Z,439.80
2019-06-10T05:07:37.023Z,435.30
2019-06-10T05:08:13.015Z,468.80
2019-06-10T05:08:46.420Z,482.90
2019-06-10T05:09:24.488Z,468.00
2019-06-10T05:09:57.522Z,475.50
2019-06-10T05:10:33.220Z,492.80
2019-06-10T05:11:08.437Z,468.20
2019-06-10T05:11:43.635Z,447.90
2019-06-10T05:12:19.227Z,483.80
2019-06-10T05:12:54.627Z,462.30
2019-06-10T05:13:30.079Z,461.30
2019-06-10T05:14:05.252Z,469.30
2019-06-10T05:14:43.123Z,464.70
2019-06-10T05:15:16.054Z,467.60
2019-06-10T05:15:52.727Z,463.60
2019-06-10T05:16:30.033Z,461.00
2019-06-10T05:17:02.334Z,457.20
2019-06-10T05:17:37.371Z,457.10
2019-06-10T05:18:13.151Z,462.40
2019-06-10T05:18:51.509Z,465.10
2019-06-10T05:19:25.816Z,484.10
2019-06-10T05:19:59.100Z,482.60
2019-06-10T05:20:50.820Z,466.30
2019-06-10T05:21:12.833Z,478.20
2019-06-10T05:21:45.923Z,483.70
2019-06-10T05:22:23.997Z,480.10
2019-06-10T05:22:56.749Z,481.30
2019-06-10T05:23:32.929Z,485.80
2019-06-10T05:24:07.547Z,482.80
2019-06-10T05:24:42.979Z,472.90
2019-06-10T05:25:19.724Z,470.50
2019-06-10T05:25:56.200Z,477.70
2019-06-10T05:26:30.474Z,482.40
2019-06-10T05:27:04.862Z,482.20
2019-06-10T05:27:42.737Z,477.50
2019-06-10T05:28:15.560Z,464.80
2019-06-10T05:28:52.449Z,472.60
2019-06-10T05:29:28.054Z,481.20
2019-06-10T05:30:02.331Z,484.70
2019-06-10T05:30:37.498Z,476.10
2019-06-10T05:31:13.211Z,473.10
2019-06-10T05:31:48.755Z,453.40
2019-06-10T05:32:25.904Z,453.70
2019-06-10T05:32:59.525Z,458.30
2019-06-10T05:33:35.309Z,482.90
2019-06-10T05:34:12.829Z,473.90
2019-06-10T05:34:45.816Z,462.00
2019-06-10T05:35:23.269Z,440.00
2019-06-10T05:35:56.736Z,433.70
2019-06-10T05:36:34.760Z,435.60
2019-06-10T05:37:07.700Z,439.70
2019-06-10T05:37:43.231Z,454.00
2019-06-10T05:38:18.690Z,447.00
2019-06-10T05:38:54.169Z,426.30
2019-06-10T05:39:30.761Z,424.60
2019-06-10T05:40:05.264Z,432.30
2019-06-10T05:40:42.617Z,422.00
2019-06-10T05:41:16.068Z,424.90
2019-06-10T05:41:53.107Z,427.30
2019-06-10T05:42:27.862Z,424.80
2019-06-10T05:43:02.577Z,416.70
2019-06-10T05:43:37.532Z,408.70
2019-06-10T05:44:13.424Z,426.60
2019-06-10T05:44:48.420Z,429.10
2019-06-10T05:45:25.892Z,421.30
2019-06-10T05:45:59.152Z,408.40
2019-06-10T05:46:34.997Z,416.20
2019-06-10T05:47:12.253Z,442.30
2019-06-10T05:47:45.721Z,439.80
2019-06-10T05:48:22.657Z,451.30
2019-06-10T05:48:56.628Z,448.90
2019-06-10T05:49:35.656Z,437.30
2019-06-10T05:50:07.524Z,432.90
2019-06-10T05:50:43.500Z,420.40
2019-06-10T05:51:18.861Z,423.00
2019-06-10T05:51:54.224Z,440.10
2019-06-10T05:52:29.756Z,450.20
2019-06-10T05:53:05.226Z,429.40
2019-06-10T05:53:42.622Z,415.50
2019-06-10T05:54:16.023Z,408.30
2019-06-10T05:54:52.174Z,428.50
2019-06-10T05:55:27.071Z,435.60
2019-06-10T05:56:02.378Z,432.60
2019-06-10T05:56:37.474Z,420.30
2019-06-10T05:57:13.031Z,407.90
2019-06-10T05:57:48.511Z,415.50
2019-06-10T05:58:24.727Z,415.70
2019-06-10T05:59:01.566Z,424.70
2019-06-10T05:59:36.000Z,426.50
2019-06-10T06:00:13.917Z,439.40
2019-06-10T06:00:45.756Z,435.00
2019-06-10T06:01:22.927Z,423.80
2019-06-10T06:01:57.352Z,406.30
2019-06-10T06:02:34.203Z,410.30
2019-06-10T06:03:08.171Z,418.70
2019-06-10T06:03:43.999Z,417.90
2019-06-10T06:04:19.082Z,426.50
2019-06-10T06:04:54.615Z,412.30
2019-06-10T06:05:30.214Z,409.80
2019-06-10T06:06:05.563Z,412.80
2019-06-10T06:06:42.474Z,415.30
2019-06-10T06:07:16.605Z,429.20
2019-06-10T06:08:02.246Z,412.80
2019-06-10T06:08:29.121Z,406.20
2019-06-10T06:09:03.148Z,420.90
2019-06-10T06:09:38.604Z,424.10
2019-06-10T06:10:13.882Z,413.50
2019-06-10T06:10:49.205Z,410.10
2019-06-10T06:11:25.240Z,404.50
2019-06-10T06:12:02.351Z,405.80
2019-06-10T06:12:35.794Z,399.80
2019-06-10T06:13:12.761Z,412.50
2019-06-10T06:13:45.957Z,407.70
2019-06-10T06:14:22.637Z,413.90
2019-06-10T06:14:56.688Z,414.50
2019-06-10T06:15:34.493Z,410.20
2019-06-10T06:16:07.577Z,400.80
2019-06-10T06:16:43.314Z,409.10
2019-06-10T06:17:18.422Z,415.50
2019-06-10T06:18:06.518Z,393.60
2019-06-10T06:18:33.198Z,397.00
2019-06-10T06:19:06.771Z,394.10
2019-06-10T06:19:43.328Z,386.20
2019-06-10T06:20:17.396Z,389.60
2019-06-10T06:20:52.708Z,393.20
2019-06-10T06:21:32.432Z,391.10
2019-06-10T06:22:03.506Z,390.20
2019-06-10T06:22:38.994Z,386.70
2019-06-10T06:23:14.343Z,391.50
2019-06-10T06:23:49.712Z,405.20
2019-06-10T06:24:25.549Z,410.80
2019-06-10T06:25:03.340Z,431.20
2019-06-10T06:25:39.791Z,435.00
2019-06-10T06:26:15.877Z,430.50
2019-06-10T06:26:46.844Z,412.50
2019-06-10T06:27:22.679Z,420.20
2019-06-10T06:27:58.239Z,405.40
2019-06-10T06:28:34.591Z,405.20
2019-06-10T06:29:08.655Z,396.00
2019-06-10T06:29:43.994Z,381.30
2019-06-10T06:30:19.472Z,375.90
2019-06-10T06:30:54.832Z,372.60
2019-06-10T06:31:32.594Z,386.50
2019-06-10T06:32:05.573Z,393.70
2019-06-10T06:32:43.382Z,377.10
2019-06-10T06:33:16.196Z,384.50
2019-06-10T06:33:52.764Z,384.20
2019-06-10T06:34:28.311Z,392.70
2019-06-10T06:35:02.818Z,378.60
2019-06-10T06:35:42.984Z,365.20
2019-06-10T06:36:13.646Z,377.20
2019-06-10T06:36:49.225Z,390.50
2019-06-10T06:37:25.007Z,376.40
2019-06-10T06:38:02.461Z,380.90
2019-06-10T06:38:37.189Z,382.20
2019-06-10T06:39:12.861Z,366.00
2019-06-10T06:39:46.533Z,366.30
2019-06-10T06:40:23.097Z,374.40
2019-06-10T06:40:57.642Z,387.90
2019-06-10T06:41:34.516Z,389.00
2019-06-10T06:42:08.715Z,379.70
2019-06-10T06:42:43.979Z,364.70
2019-06-10T06:43:19.359Z,360.20
2019-06-10T06:43:54.685Z,372.40
2019-06-10T06:44:32.467Z,377.20
2019-06-10T06:45:05.118Z,371.20
2019-06-10T06:45:42.453Z,376.00
2019-06-10T06:46:15.907Z,381.00
2019-06-10T06:46:53.114Z,379.20
2019-06-10T06:47:27.761Z,380.00
2019-06-10T06:48:03.011Z,373.20
2019-06-10T06:48:40.305Z,379.50
2019-06-10T06:49:14.000Z,373.80
2019-06-10T06:49:49.371Z,368.80
2019-06-10T06:50:25.680Z,376.10
2019-06-10T06:51:04.458Z,365.60
2019-06-10T06:51:47.567Z,368.60
2019-06-10T06:52:12.661Z,370.70
2019-06-10T06:53:15.729Z,369.90
2019-06-10T06:53:32.414Z,379.40
2019-06-10T06:53:57.002Z,372.00
2019-06-10T06:54:33.385Z,381.00
2019-06-10T06:55:08.227Z,379.90
2019-06-10T06:55:43.993Z,371.80
2019-06-10T06:56:19.440Z,380.30
2019-06-10T06:56:55.243Z,373.30
2019-06-10T06:57:33.294Z,391.50
2019-06-10T06:58:06.072Z,393.20
2019-06-10T06:58:43.313Z,380.50
2019-06-10T06:59:16.893Z,383.70
2019-06-10T06:59:52.605Z,381.50
2019-06-10T07:00:43.053Z,376.10
2019-06-10T07:01:10.203Z,378.60
2019-06-10T07:01:39.544Z,365.30
2019-06-10T07:02:14.037Z,364.30
2019-06-10T07:02:49.518Z,369.20
2019-06-10T07:03:24.841Z,359.70
2019-06-10T07:04:02.456Z,357.90
2019-06-10T07:04:37.082Z,349.50
2019-06-10T07:05:12.565Z,354.00
2019-06-10T07:05:46.968Z,358.30
2019-06-10T07:06:22.917Z,362.80
2019-06-10T07:06:58.222Z,362.30
2019-06-10T07:07:35.656Z,355.80
2019-06-10T07:08:09.161Z,366.70
2019-06-10T07:08:57.747Z,373.70
2019-06-10T07:09:21.972Z,360.10
2019-06-10T07:09:55.601Z,362.40
2019-06-10T07:10:32.859Z,361.10
2019-06-10T07:11:06.345Z,354.30
2019-06-10T07:11:44.935Z,363.70
2019-06-10T07:12:17.491Z,362.30
2019-06-10T07:12:53.108Z,356.60
2019-06-10T07:13:28.474Z,355.50
2019-06-10T07:14:04.176Z,364.90
2019-06-10T07:14:40.836Z,344.70
2019-06-10T07:15:15.458Z,339.90
2019-06-10T07:15:53.283Z,362.20
2019-06-10T07:16:26.294Z,370.40
2019-06-10T07:17:03.969Z,363.80
2019-06-10T07:17:37.938Z,353.80
2019-06-10T07:18:13.005Z,337.30
2019-06-10T07:18:50.259Z,342.10
2019-06-10T07:19:23.408Z,349.80
2019-06-10T07:19:58.633Z,347.40
2019-06-10T07:20:36.669Z,358.90
2019-06-10T07:21:09.440Z,367.70
2019-06-10T07:22:05.305Z,378.20
2019-06-10T07:22:23.117Z,376.70